sensor_id;sensor_type;location;lat;lon;timestamp;P1;durP1;ratioP1;P2;durP2;ratioP2
77453;SDS011;66538;53.150;18.160;2023-10-31T00:01:35;80.70;;;30.60;;
77453;SDS011;66538;53.150;18.160;2023-10-31T00:04:01;79.80;;;29.80;;
77453;SDS011;66538;53.150;18.160;2023-10-31T00:06:28;72.40;;;28.20;;
77453;SDS011;66538;53.150;18.160;2023-10-31T00:08:54;82.40;;;31.20;;
77453;SDS011;66538;53.150;18.160;2023-10-31T00:11:22;73.00;;;30.10;;
77453;SDS011;66538;53.150;18.160;2023-10-31T00:13:49;78.80;;;28.40;;
77453;SDS011;66538;53.150;18.160;2023-10-31T00:16:16;87.30;;;33.80;;
77453;SDS011;66538;53.150;18.160;2023-10-31T00:18:42;77.30;;;29.40;;
77453;SDS011;66538;53.150;18.160;2023-10-31T00:21:09;80.70;;;32.80;;
77453;SDS011;66538;53.150;18.160;2023-10-31T00:23:42;87.40;;;31.80;;
77453;SDS011;66538;53.150;18.160;2023-10-31T00:26:09;74.20;;;27.80;;
77453;SDS011;66538;53.150;18.160;2023-10-31T00:28:36;68.40;;;28.10;;
77453;SDS011;66538;53.150;18.160;2023-10-31T00:31:03;73.10;;;29.60;;
77453;SDS011;66538;53.150;18.160;2023-10-31T00:33:31;70.80;;;26.70;;
77453;SDS011;66538;53.150;18.160;2023-10-31T00:35:58;80.50;;;27.90;;
77453;SDS011;66538;53.150;18.160;2023-10-31T00:38:24;65.20;;;27.60;;
77453;SDS011;66538;53.150;18.160;2023-10-31T00:40:51;75.90;;;28.90;;
77453;SDS011;66538;53.150;18.160;2023-10-31T00:43:17;72.80;;;28.30;;
77453;SDS011;66538;53.150;18.160;2023-10-31T00:45:44;68.10;;;28.40;;
77453;SDS011;66538;53.150;18.160;2023-10-31T00:48:11;64.40;;;28.30;;
77453;SDS011;66538;53.150;18.160;2023-10-31T00:50:37;69.80;;;27.10;;
77453;SDS011;66538;53.150;18.160;2023-10-31T00:53:04;71.10;;;26.90;;
77453;SDS011;66538;53.150;18.160;2023-10-31T00:55:30;60.40;;;25.10;;
77453;SDS011;66538;53.150;18.160;2023-10-31T00:57:57;80.30;;;30.10;;
77453;SDS011;66538;53.150;18.160;2023-10-31T01:00:23;71.20;;;27.80;;
77453;SDS011;66538;53.150;18.160;2023-10-31T01:02:50;64.70;;;26.00;;
77453;SDS011;66538;53.150;18.160;2023-10-31T01:05:17;74.20;;;30.20;;
77453;SDS011;66538;53.150;18.160;2023-10-31T01:07:44;65.60;;;26.50;;
77453;SDS011;66538;53.150;18.160;2023-10-31T01:10:11;69.80;;;28.00;;
77453;SDS011;66538;53.150;18.160;2023-10-31T01:12:37;67.00;;;28.70;;
77453;SDS011;66538;53.150;18.160;2023-10-31T01:15:04;68.10;;;28.90;;
77453;SDS011;66538;53.150;18.160;2023-10-31T01:17:31;73.30;;;29.10;;
77453;SDS011;66538;53.150;18.160;2023-10-31T01:19:58;71.40;;;27.40;;
77453;SDS011;66538;53.150;18.160;2023-10-31T01:22:24;71.70;;;28.00;;
77453;SDS011;66538;53.150;18.160;2023-10-31T01:28:14;71.40;;;28.30;;
77453;SDS011;66538;53.150;18.160;2023-10-31T01:30:41;62.00;;;25.90;;
77453;SDS011;66538;53.150;18.160;2023-10-31T01:33:07;69.40;;;27.50;;
77453;SDS011;66538;53.150;18.160;2023-10-31T01:35:34;66.20;;;27.10;;
77453;SDS011;66538;53.150;18.160;2023-10-31T01:38:00;63.30;;;25.60;;
77453;SDS011;66538;53.150;18.160;2023-10-31T01:40:27;60.40;;;24.20;;
77453;SDS011;66538;53.150;18.160;2023-10-31T01:42:55;71.40;;;29.20;;
77453;SDS011;66538;53.150;18.160;2023-10-31T01:45:22;61.90;;;24.20;;
77453;SDS011;66538;53.150;18.160;2023-10-31T01:47:48;72.60;;;27.30;;
77453;SDS011;66538;53.150;18.160;2023-10-31T01:50:16;66.70;;;25.50;;
77453;SDS011;66538;53.150;18.160;2023-10-31T01:52:44;65.40;;;28.40;;
77453;SDS011;66538;53.150;18.160;2023-10-31T01:55:11;77.40;;;28.10;;
77453;SDS011;66538;53.150;18.160;2023-10-31T01:57:38;71.40;;;28.50;;
77453;SDS011;66538;53.150;18.160;2023-10-31T02:00:05;83.50;;;33.40;;
77453;SDS011;66538;53.150;18.160;2023-10-31T02:02:41;72.40;;;28.90;;
77453;SDS011;66538;53.150;18.160;2023-10-31T02:05:09;60.20;;;26.40;;
77453;SDS011;66538;53.150;18.160;2023-10-31T02:07:36;64.90;;;29.50;;
77453;SDS011;66538;53.150;18.160;2023-10-31T02:10:02;55.10;;;28.70;;
77453;SDS011;66538;53.150;18.160;2023-10-31T02:12:33;53.80;;;28.30;;
77453;SDS011;66538;53.150;18.160;2023-10-31T02:15:01;75.20;;;34.20;;
77453;SDS011;66538;53.150;18.160;2023-10-31T02:17:28;66.50;;;32.10;;
77453;SDS011;66538;53.150;18.160;2023-10-31T02:19:56;77.80;;;34.90;;
77453;SDS011;66538;53.150;18.160;2023-10-31T02:22:22;82.90;;;36.10;;
77453;SDS011;66538;53.150;18.160;2023-10-31T02:24:49;77.80;;;31.40;;
77453;SDS011;66538;53.150;18.160;2023-10-31T02:27:16;84.50;;;33.40;;
77453;SDS011;66538;53.150;18.160;2023-10-31T02:29:43;77.30;;;32.70;;
77453;SDS011;66538;53.150;18.160;2023-10-31T02:32:11;82.00;;;36.40;;
77453;SDS011;66538;53.150;18.160;2023-10-31T02:34:38;64.90;;;26.20;;
77453;SDS011;66538;53.150;18.160;2023-10-31T02:37:04;64.50;;;27.00;;
77453;SDS011;66538;53.150;18.160;2023-10-31T02:39:32;76.40;;;29.50;;
77453;SDS011;66538;53.150;18.160;2023-10-31T02:41:59;61.80;;;25.20;;
77453;SDS011;66538;53.150;18.160;2023-10-31T02:44:26;66.10;;;29.00;;
77453;SDS011;66538;53.150;18.160;2023-10-31T02:46:52;66.00;;;26.90;;
77453;SDS011;66538;53.150;18.160;2023-10-31T02:49:19;62.50;;;27.10;;
77453;SDS011;66538;53.150;18.160;2023-10-31T02:51:46;52.50;;;23.40;;
77453;SDS011;66538;53.150;18.160;2023-10-31T02:54:13;55.70;;;23.40;;
77453;SDS011;66538;53.150;18.160;2023-10-31T02:56:39;55.80;;;23.70;;
77453;SDS011;66538;53.150;18.160;2023-10-31T02:59:06;60.80;;;25.30;;
77453;SDS011;66538;53.150;18.160;2023-10-31T03:01:33;51.80;;;23.30;;
77453;SDS011;66538;53.150;18.160;2023-10-31T03:04:01;59.10;;;26.20;;
77453;SDS011;66538;53.150;18.160;2023-10-31T03:06:28;47.30;;;21.00;;
77453;SDS011;66538;53.150;18.160;2023-10-31T03:08:54;47.80;;;21.20;;
77453;SDS011;66538;53.150;18.160;2023-10-31T03:11:24;45.90;;;21.80;;
77453;SDS011;66538;53.150;18.160;2023-10-31T03:13:52;39.70;;;18.20;;
77453;SDS011;66538;53.150;18.160;2023-10-31T03:16:19;46.60;;;21.40;;
77453;SDS011;66538;53.150;18.160;2023-10-31T03:18:46;45.10;;;19.60;;
77453;SDS011;66538;53.150;18.160;2023-10-31T03:21:13;38.90;;;20.40;;
77453;SDS011;66538;53.150;18.160;2023-10-31T03:23:41;41.40;;;19.30;;
77453;SDS011;66538;53.150;18.160;2023-10-31T03:26:09;39.10;;;19.80;;
77453;SDS011;66538;53.150;18.160;2023-10-31T03:28:36;45.80;;;20.40;;
77453;SDS011;66538;53.150;18.160;2023-10-31T03:31:03;38.90;;;18.10;;
77453;SDS011;66538;53.150;18.160;2023-10-31T03:33:31;40.20;;;17.50;;
77453;SDS011;66538;53.150;18.160;2023-10-31T03:35:58;41.70;;;19.60;;
77453;SDS011;66538;53.150;18.160;2023-10-31T03:38:24;43.60;;;21.80;;
77453;SDS011;66538;53.150;18.160;2023-10-31T03:40:51;42.80;;;20.30;;
77453;SDS011;66538;53.150;18.160;2023-10-31T03:43:19;37.20;;;17.40;;
77453;SDS011;66538;53.150;18.160;2023-10-31T03:45:46;43.50;;;21.00;;
77453;SDS011;66538;53.150;18.160;2023-10-31T03:48:16;38.40;;;18.10;;
77453;SDS011;66538;53.150;18.160;2023-10-31T03:50:43;37.60;;;19.00;;
77453;SDS011;66538;53.150;18.160;2023-10-31T03:53:10;35.10;;;17.70;;
77453;SDS011;66538;53.150;18.160;2023-10-31T03:55:37;39.50;;;19.70;;
77453;SDS011;66538;53.150;18.160;2023-10-31T03:58:03;33.70;;;16.60;;
77453;SDS011;66538;53.150;18.160;2023-10-31T04:00:30;34.00;;;16.90;;
77453;SDS011;66538;53.150;18.160;2023-10-31T04:02:57;35.20;;;15.90;;
77453;SDS011;66538;53.150;18.160;2023-10-31T04:05:24;35.60;;;17.90;;
77453;SDS011;66538;53.150;18.160;2023-10-31T04:07:51;33.10;;;15.50;;
77453;SDS011;66538;53.150;18.160;2023-10-31T04:10:18;31.70;;;15.30;;
77453;SDS011;66538;53.150;18.160;2023-10-31T04:12:45;32.10;;;15.40;;
77453;SDS011;66538;53.150;18.160;2023-10-31T04:15:12;27.90;;;14.60;;
77453;SDS011;66538;53.150;18.160;2023-10-31T04:17:38;30.50;;;14.30;;
77453;SDS011;66538;53.150;18.160;2023-10-31T04:20:05;28.10;;;14.70;;
77453;SDS011;66538;53.150;18.160;2023-10-31T04:22:32;31.90;;;14.50;;
77453;SDS011;66538;53.150;18.160;2023-10-31T04:24:59;32.10;;;16.30;;
77453;SDS011;66538;53.150;18.160;2023-10-31T04:27:26;30.90;;;15.80;;
77453;SDS011;66538;53.150;18.160;2023-10-31T04:29:52;29.00;;;15.10;;
77453;SDS011;66538;53.150;18.160;2023-10-31T04:32:19;33.10;;;15.70;;
77453;SDS011;66538;53.150;18.160;2023-10-31T04:34:45;32.40;;;15.00;;
77453;SDS011;66538;53.150;18.160;2023-10-31T04:37:12;29.80;;;14.50;;
77453;SDS011;66538;53.150;18.160;2023-10-31T04:39:38;30.90;;;15.90;;
77453;SDS011;66538;53.150;18.160;2023-10-31T04:42:05;29.30;;;14.80;;
77453;SDS011;66538;53.150;18.160;2023-10-31T04:44:32;25.50;;;13.70;;
77453;SDS011;66538;53.150;18.160;2023-10-31T04:46:59;26.80;;;14.60;;
77453;SDS011;66538;53.150;18.160;2023-10-31T04:49:25;28.50;;;14.90;;
77453;SDS011;66538;53.150;18.160;2023-10-31T04:51:52;30.50;;;14.40;;
77453;SDS011;66538;53.150;18.160;2023-10-31T04:54:19;27.10;;;13.90;;
77453;SDS011;66538;53.150;18.160;2023-10-31T04:56:46;29.30;;;14.40;;
77453;SDS011;66538;53.150;18.160;2023-10-31T04:59:13;29.50;;;14.40;;
77453;SDS011;66538;53.150;18.160;2023-10-31T05:01:40;24.70;;;12.60;;
77453;SDS011;66538;53.150;18.160;2023-10-31T05:04:07;25.60;;;14.00;;
77453;SDS011;66538;53.150;18.160;2023-10-31T05:06:33;28.00;;;14.00;;
77453;SDS011;66538;53.150;18.160;2023-10-31T05:09:00;30.30;;;15.50;;
77453;SDS011;66538;53.150;18.160;2023-10-31T05:11:27;31.40;;;17.40;;
77453;SDS011;66538;53.150;18.160;2023-10-31T05:13:53;25.60;;;14.00;;
77453;SDS011;66538;53.150;18.160;2023-10-31T05:16:20;27.80;;;14.40;;
77453;SDS011;66538;53.150;18.160;2023-10-31T05:18:46;26.20;;;13.40;;
77453;SDS011;66538;53.150;18.160;2023-10-31T05:21:18;27.00;;;13.50;;
77453;SDS011;66538;53.150;18.160;2023-10-31T05:23:46;28.40;;;14.10;;
77453;SDS011;66538;53.150;18.160;2023-10-31T05:26:13;25.00;;;12.50;;
77453;SDS011;66538;53.150;18.160;2023-10-31T05:28:40;24.80;;;13.80;;
77453;SDS011;66538;53.150;18.160;2023-10-31T05:31:06;24.70;;;13.50;;
77453;SDS011;66538;53.150;18.160;2023-10-31T05:33:33;22.90;;;13.30;;
77453;SDS011;66538;53.150;18.160;2023-10-31T05:35:59;23.60;;;11.80;;
77453;SDS011;66538;53.150;18.160;2023-10-31T05:38:26;26.30;;;13.70;;
77453;SDS011;66538;53.150;18.160;2023-10-31T05:40:53;22.20;;;12.30;;
77453;SDS011;66538;53.150;18.160;2023-10-31T05:43:19;24.40;;;13.10;;
77453;SDS011;66538;53.150;18.160;2023-10-31T05:45:46;29.40;;;14.50;;
77453;SDS011;66538;53.150;18.160;2023-10-31T05:48:12;25.30;;;12.70;;
77453;SDS011;66538;53.150;18.160;2023-10-31T05:50:42;25.20;;;13.00;;
77453;SDS011;66538;53.150;18.160;2023-10-31T05:53:08;24.30;;;12.80;;
77453;SDS011;66538;53.150;18.160;2023-10-31T05:55:38;26.50;;;13.20;;
77453;SDS011;66538;53.150;18.160;2023-10-31T05:58:05;20.90;;;12.10;;
77453;SDS011;66538;53.150;18.160;2023-10-31T06:00:32;22.70;;;12.80;;
77453;SDS011;66538;53.150;18.160;2023-10-31T06:02:58;22.90;;;12.90;;
77453;SDS011;66538;53.150;18.160;2023-10-31T06:05:25;25.60;;;13.80;;
77453;SDS011;66538;53.150;18.160;2023-10-31T06:07:52;22.10;;;12.20;;
77453;SDS011;66538;53.150;18.160;2023-10-31T06:10:18;27.00;;;12.80;;
77453;SDS011;66538;53.150;18.160;2023-10-31T06:12:45;21.00;;;11.60;;
77453;SDS011;66538;53.150;18.160;2023-10-31T06:15:12;20.70;;;12.70;;
77453;SDS011;66538;53.150;18.160;2023-10-31T06:17:38;23.80;;;12.40;;
77453;SDS011;66538;53.150;18.160;2023-10-31T06:20:08;20.90;;;12.00;;
77453;SDS011;66538;53.150;18.160;2023-10-31T06:22:35;22.20;;;12.60;;
77453;SDS011;66538;53.150;18.160;2023-10-31T06:25:02;22.40;;;12.50;;
77453;SDS011;66538;53.150;18.160;2023-10-31T06:27:29;19.70;;;11.60;;
77453;SDS011;66538;53.150;18.160;2023-10-31T06:29:55;19.10;;;10.40;;
77453;SDS011;66538;53.150;18.160;2023-10-31T06:32:22;18.20;;;10.80;;
77453;SDS011;66538;53.150;18.160;2023-10-31T06:34:49;18.70;;;10.30;;
77453;SDS011;66538;53.150;18.160;2023-10-31T06:37:15;18.20;;;9.70;;
77453;SDS011;66538;53.150;18.160;2023-10-31T06:39:42;16.40;;;9.90;;
77453;SDS011;66538;53.150;18.160;2023-10-31T06:42:08;18.70;;;10.30;;
77453;SDS011;66538;53.150;18.160;2023-10-31T06:44:35;21.90;;;11.20;;
77453;SDS011;66538;53.150;18.160;2023-10-31T06:47:02;14.90;;;10.00;;
77453;SDS011;66538;53.150;18.160;2023-10-31T06:49:28;17.70;;;10.10;;
77453;SDS011;66538;53.150;18.160;2023-10-31T06:51:55;21.20;;;9.70;;
77453;SDS011;66538;53.150;18.160;2023-10-31T06:54:22;18.00;;;9.80;;
77453;SDS011;66538;53.150;18.160;2023-10-31T06:56:48;17.50;;;10.20;;
77453;SDS011;66538;53.150;18.160;2023-10-31T06:59:15;23.50;;;11.60;;
77453;SDS011;66538;53.150;18.160;2023-10-31T07:01:42;17.00;;;9.40;;
77453;SDS011;66538;53.150;18.160;2023-10-31T07:04:09;16.50;;;10.00;;
77453;SDS011;66538;53.150;18.160;2023-10-31T07:06:36;16.60;;;9.30;;
77453;SDS011;66538;53.150;18.160;2023-10-31T07:09:02;16.70;;;10.30;;
77453;SDS011;66538;53.150;18.160;2023-10-31T07:11:31;18.40;;;9.40;;
77453;SDS011;66538;53.150;18.160;2023-10-31T07:14:00;18.00;;;8.30;;
77453;SDS011;66538;53.150;18.160;2023-10-31T07:16:28;16.90;;;10.40;;
77453;SDS011;66538;53.150;18.160;2023-10-31T07:18:55;15.40;;;9.20;;
77453;SDS011;66538;53.150;18.160;2023-10-31T07:21:22;14.80;;;8.70;;
77453;SDS011;66538;53.150;18.160;2023-10-31T07:23:48;18.10;;;9.40;;
77453;SDS011;66538;53.150;18.160;2023-10-31T07:26:15;14.20;;;8.40;;
77453;SDS011;66538;53.150;18.160;2023-10-31T07:28:42;13.50;;;8.60;;
77453;SDS011;66538;53.150;18.160;2023-10-31T07:31:09;15.80;;;9.20;;
77453;SDS011;66538;53.150;18.160;2023-10-31T07:33:36;12.90;;;8.30;;
77453;SDS011;66538;53.150;18.160;2023-10-31T07:36:03;16.50;;;10.20;;
77453;SDS011;66538;53.150;18.160;2023-10-31T07:38:30;14.90;;;9.50;;
77453;SDS011;66538;53.150;18.160;2023-10-31T07:40:56;17.50;;;9.90;;
77453;SDS011;66538;53.150;18.160;2023-10-31T07:43:23;15.70;;;9.00;;
77453;SDS011;66538;53.150;18.160;2023-10-31T07:45:49;15.80;;;9.70;;
77453;SDS011;66538;53.150;18.160;2023-10-31T07:48:16;16.70;;;9.70;;
77453;SDS011;66538;53.150;18.160;2023-10-31T07:50:43;14.10;;;8.80;;
77453;SDS011;66538;53.150;18.160;2023-10-31T07:53:09;20.00;;;9.60;;
77453;SDS011;66538;53.150;18.160;2023-10-31T07:55:36;14.40;;;8.60;;
77453;SDS011;66538;53.150;18.160;2023-10-31T07:58:03;13.60;;;8.10;;
77453;SDS011;66538;53.150;18.160;2023-10-31T08:00:29;13.30;;;8.30;;
77453;SDS011;66538;53.150;18.160;2023-10-31T08:02:57;13.60;;;8.30;;
77453;SDS011;66538;53.150;18.160;2023-10-31T08:05:23;14.20;;;8.00;;
77453;SDS011;66538;53.150;18.160;2023-10-31T08:07:50;14.30;;;8.00;;
77453;SDS011;66538;53.150;18.160;2023-10-31T08:10:17;16.60;;;9.00;;
77453;SDS011;66538;53.150;18.160;2023-10-31T08:12:43;17.70;;;9.60;;
77453;SDS011;66538;53.150;18.160;2023-10-31T08:15:10;13.10;;;9.30;;
77453;SDS011;66538;53.150;18.160;2023-10-31T08:17:37;16.00;;;9.80;;
77453;SDS011;66538;53.150;18.160;2023-10-31T08:20:03;16.90;;;8.50;;
77453;SDS011;66538;53.150;18.160;2023-10-31T08:22:31;15.80;;;10.60;;
77453;SDS011;66538;53.150;18.160;2023-10-31T08:24:57;16.70;;;9.30;;
77453;SDS011;66538;53.150;18.160;2023-10-31T08:27:24;14.60;;;10.00;;
77453;SDS011;66538;53.150;18.160;2023-10-31T08:29:50;17.00;;;9.10;;
77453;SDS011;66538;53.150;18.160;2023-10-31T08:32:17;14.90;;;9.60;;
77453;SDS011;66538;53.150;18.160;2023-10-31T08:34:43;14.60;;;9.40;;
77453;SDS011;66538;53.150;18.160;2023-10-31T08:37:10;13.20;;;8.30;;
77453;SDS011;66538;53.150;18.160;2023-10-31T08:39:36;15.80;;;8.90;;
77453;SDS011;66538;53.150;18.160;2023-10-31T08:42:03;18.50;;;9.90;;
77453;SDS011;66538;53.150;18.160;2023-10-31T08:44:30;16.40;;;10.70;;
77453;SDS011;66538;53.150;18.160;2023-10-31T08:46:57;20.50;;;11.00;;
77453;SDS011;66538;53.150;18.160;2023-10-31T08:49:23;16.50;;;9.80;;
77453;SDS011;66538;53.150;18.160;2023-10-31T08:51:50;16.00;;;9.40;;
77453;SDS011;66538;53.150;18.160;2023-10-31T08:54:16;15.80;;;9.40;;
77453;SDS011;66538;53.150;18.160;2023-10-31T08:56:43;15.90;;;9.20;;
77453;SDS011;66538;53.150;18.160;2023-10-31T08:59:10;19.70;;;11.10;;
77453;SDS011;66538;53.150;18.160;2023-10-31T09:01:36;30.10;;;14.30;;
77453;SDS011;66538;53.150;18.160;2023-10-31T09:04:03;22.90;;;13.90;;
77453;SDS011;66538;53.150;18.160;2023-10-31T09:06:30;23.20;;;12.50;;
77453;SDS011;66538;53.150;18.160;2023-10-31T09:08:56;18.70;;;10.00;;
77453;SDS011;66538;53.150;18.160;2023-10-31T09:11:23;20.90;;;12.00;;
77453;SDS011;66538;53.150;18.160;2023-10-31T09:13:49;16.30;;;11.30;;
77453;SDS011;66538;53.150;18.160;2023-10-31T09:16:16;20.80;;;10.40;;
77453;SDS011;66538;53.150;18.160;2023-10-31T09:18:43;20.20;;;12.60;;
77453;SDS011;66538;53.150;18.160;2023-10-31T09:21:09;25.20;;;16.50;;
77453;SDS011;66538;53.150;18.160;2023-10-31T09:23:36;22.50;;;13.30;;
77453;SDS011;66538;53.150;18.160;2023-10-31T09:26:03;22.40;;;13.60;;
77453;SDS011;66538;53.150;18.160;2023-10-31T09:28:30;26.70;;;16.90;;
77453;SDS011;66538;53.150;18.160;2023-10-31T09:30:56;19.00;;;13.20;;
77453;SDS011;66538;53.150;18.160;2023-10-31T09:33:23;23.70;;;15.50;;
77453;SDS011;66538;53.150;18.160;2023-10-31T09:35:50;23.80;;;16.40;;
77453;SDS011;66538;53.150;18.160;2023-10-31T09:38:16;21.10;;;13.40;;
77453;SDS011;66538;53.150;18.160;2023-10-31T09:40:43;23.20;;;15.10;;
77453;SDS011;66538;53.150;18.160;2023-10-31T09:43:10;20.60;;;12.90;;
77453;SDS011;66538;53.150;18.160;2023-10-31T09:45:36;13.90;;;9.70;;
77453;SDS011;66538;53.150;18.160;2023-10-31T09:48:03;16.10;;;9.60;;
77453;SDS011;66538;53.150;18.160;2023-10-31T09:50:30;15.90;;;12.10;;
77453;SDS011;66538;53.150;18.160;2023-10-31T09:52:57;19.60;;;12.20;;
77453;SDS011;66538;53.150;18.160;2023-10-31T09:55:24;14.30;;;8.70;;
77453;SDS011;66538;53.150;18.160;2023-10-31T09:57:52;17.40;;;11.50;;
77453;SDS011;66538;53.150;18.160;2023-10-31T10:00:18;20.60;;;12.90;;
77453;SDS011;66538;53.150;18.160;2023-10-31T10:02:45;13.00;;;7.50;;
77453;SDS011;66538;53.150;18.160;2023-10-31T10:05:12;13.00;;;8.10;;
77453;SDS011;66538;53.150;18.160;2023-10-31T10:07:42;9.70;;;6.40;;
77453;SDS011;66538;53.150;18.160;2023-10-31T10:10:12;13.20;;;9.70;;
77453;SDS011;66538;53.150;18.160;2023-10-31T10:12:43;14.40;;;9.40;;
77453;SDS011;66538;53.150;18.160;2023-10-31T10:15:10;11.30;;;7.90;;
77453;SDS011;66538;53.150;18.160;2023-10-31T10:17:38;9.80;;;6.20;;
77453;SDS011;66538;53.150;18.160;2023-10-31T10:22:41;13.90;;;10.20;;
77453;SDS011;66538;53.150;18.160;2023-10-31T10:25:09;12.80;;;8.30;;
77453;SDS011;66538;53.150;18.160;2023-10-31T10:27:38;13.80;;;9.40;;
77453;SDS011;66538;53.150;18.160;2023-10-31T10:30:05;13.30;;;8.70;;
77453;SDS011;66538;53.150;18.160;2023-10-31T10:32:32;12.40;;;9.10;;
77453;SDS011;66538;53.150;18.160;2023-10-31T10:34:58;9.90;;;6.90;;
77453;SDS011;66538;53.150;18.160;2023-10-31T10:37:25;11.70;;;8.60;;
77453;SDS011;66538;53.150;18.160;2023-10-31T10:39:53;13.00;;;9.10;;
77453;SDS011;66538;53.150;18.160;2023-10-31T10:42:47;10.30;;;7.30;;
77453;SDS011;66538;53.150;18.160;2023-10-31T10:45:14;12.90;;;8.70;;
77453;SDS011;66538;53.150;18.160;2023-10-31T10:47:45;14.40;;;9.30;;
77453;SDS011;66538;53.150;18.160;2023-10-31T10:50:14;11.90;;;8.50;;
77453;SDS011;66538;53.150;18.160;2023-10-31T10:52:48;13.70;;;9.30;;
77453;SDS011;66538;53.150;18.160;2023-10-31T10:55:21;11.60;;;7.90;;
77453;SDS011;66538;53.150;18.160;2023-10-31T10:57:54;14.20;;;10.00;;
77453;SDS011;66538;53.150;18.160;2023-10-31T11:00:27;12.20;;;9.00;;
77453;SDS011;66538;53.150;18.160;2023-10-31T11:02:55;15.90;;;10.20;;
77453;SDS011;66538;53.150;18.160;2023-10-31T11:10:18;14.00;;;9.20;;
77453;SDS011;66538;53.150;18.160;2023-10-31T11:12:45;11.80;;;7.60;;
77453;SDS011;66538;53.150;18.160;2023-10-31T11:15:14;15.70;;;10.80;;
77453;SDS011;66538;53.150;18.160;2023-10-31T11:17:42;13.40;;;9.50;;
77453;SDS011;66538;53.150;18.160;2023-10-31T11:20:14;15.60;;;11.70;;
77453;SDS011;66538;53.150;18.160;2023-10-31T11:22:43;15.10;;;10.90;;
77453;SDS011;66538;53.150;18.160;2023-10-31T11:25:15;13.60;;;8.90;;
77453;SDS011;66538;53.150;18.160;2023-10-31T11:27:50;15.10;;;10.00;;
77453;SDS011;66538;53.150;18.160;2023-10-31T11:30:30;15.60;;;10.00;;
77453;SDS011;66538;53.150;18.160;2023-10-31T11:33:00;14.10;;;11.20;;
77453;SDS011;66538;53.150;18.160;2023-10-31T11:35:29;14.30;;;8.70;;
77453;SDS011;66538;53.150;18.160;2023-10-31T11:38:06;15.10;;;10.30;;
77453;SDS011;66538;53.150;18.160;2023-10-31T11:40:36;14.00;;;9.00;;
77453;SDS011;66538;53.150;18.160;2023-10-31T11:43:15;13.90;;;8.40;;
77453;SDS011;66538;53.150;18.160;2023-10-31T11:45:42;12.40;;;8.30;;
77453;SDS011;66538;53.150;18.160;2023-10-31T11:48:14;10.70;;;6.70;;
77453;SDS011;66538;53.150;18.160;2023-10-31T11:50:42;11.80;;;7.80;;
77453;SDS011;66538;53.150;18.160;2023-10-31T11:53:09;13.20;;;8.50;;
77453;SDS011;66538;53.150;18.160;2023-10-31T11:55:42;11.70;;;7.90;;
77453;SDS011;66538;53.150;18.160;2023-10-31T12:00:50;8.50;;;5.00;;
77453;SDS011;66538;53.150;18.160;2023-10-31T12:03:19;10.40;;;6.60;;
77453;SDS011;66538;53.150;18.160;2023-10-31T12:05:58;10.00;;;6.20;;
77453;SDS011;66538;53.150;18.160;2023-10-31T12:08:28;9.70;;;5.20;;
77453;SDS011;66538;53.150;18.160;2023-10-31T12:11:05;8.30;;;5.30;;
77453;SDS011;66538;53.150;18.160;2023-10-31T12:13:40;6.10;;;3.70;;
77453;SDS011;66538;53.150;18.160;2023-10-31T12:16:09;7.40;;;4.50;;
77453;SDS011;66538;53.150;18.160;2023-10-31T12:18:37;7.10;;;4.20;;
77453;SDS011;66538;53.150;18.160;2023-10-31T12:21:05;7.00;;;4.10;;
77453;SDS011;66538;53.150;18.160;2023-10-31T12:23:33;6.70;;;4.10;;
77453;SDS011;66538;53.150;18.160;2023-10-31T12:26:00;7.10;;;4.00;;
77453;SDS011;66538;53.150;18.160;2023-10-31T12:28:27;7.40;;;4.30;;
77453;SDS011;66538;53.150;18.160;2023-10-31T12:30:55;5.70;;;3.00;;
77453;SDS011;66538;53.150;18.160;2023-10-31T12:33:25;7.50;;;4.50;;
77453;SDS011;66538;53.150;18.160;2023-10-31T12:36:03;5.90;;;3.40;;
77453;SDS011;66538;53.150;18.160;2023-10-31T12:38:32;5.60;;;3.10;;
77453;SDS011;66538;53.150;18.160;2023-10-31T12:41:10;4.80;;;2.40;;
77453;SDS011;66538;53.150;18.160;2023-10-31T12:43:38;5.50;;;3.20;;
77453;SDS011;66538;53.150;18.160;2023-10-31T12:46:39;6.80;;;3.30;;
77453;SDS011;66538;53.150;18.160;2023-10-31T12:48:59;6.40;;;3.10;;
77453;SDS011;66538;53.150;18.160;2023-10-31T12:51:26;5.90;;;3.20;;
77453;SDS011;66538;53.150;18.160;2023-10-31T12:53:53;4.90;;;2.70;;
77453;SDS011;66538;53.150;18.160;2023-10-31T12:59:06;6.10;;;3.10;;
77453;SDS011;66538;53.150;18.160;2023-10-31T13:02:46;4.00;;;2.00;;
77453;SDS011;66538;53.150;18.160;2023-10-31T13:05:19;4.70;;;2.50;;
77453;SDS011;66538;53.150;18.160;2023-10-31T13:08:03;4.00;;;2.10;;
77453;SDS011;66538;53.150;18.160;2023-10-31T13:10:35;3.50;;;1.80;;
77453;SDS011;66538;53.150;18.160;2023-10-31T13:13:02;3.60;;;1.90;;
77453;SDS011;66538;53.150;18.160;2023-10-31T13:15:31;3.70;;;2.10;;
77453;SDS011;66538;53.150;18.160;2023-10-31T13:18:06;2.70;;;1.30;;
77453;SDS011;66538;53.150;18.160;2023-10-31T13:20:33;3.40;;;1.30;;
77453;SDS011;66538;53.150;18.160;2023-10-31T13:23:00;4.30;;;1.60;;
77453;SDS011;66538;53.150;18.160;2023-10-31T13:25:29;4.00;;;1.80;;
77453;SDS011;66538;53.150;18.160;2023-10-31T13:27:57;3.30;;;1.30;;
77453;SDS011;66538;53.150;18.160;2023-10-31T13:30:24;3.20;;;1.60;;
77453;SDS011;66538;53.150;18.160;2023-10-31T13:32:51;4.20;;;1.30;;
77453;SDS011;66538;53.150;18.160;2023-10-31T13:35:19;3.70;;;1.60;;
77453;SDS011;66538;53.150;18.160;2023-10-31T13:37:49;4.20;;;2.30;;
77453;SDS011;66538;53.150;18.160;2023-10-31T13:40:15;5.80;;;2.80;;
77453;SDS011;66538;53.150;18.160;2023-10-31T13:42:46;6.10;;;3.10;;
77453;SDS011;66538;53.150;18.160;2023-10-31T13:45:13;5.50;;;3.20;;
77453;SDS011;66538;53.150;18.160;2023-10-31T13:47:40;5.50;;;2.90;;
77453;SDS011;66538;53.150;18.160;2023-10-31T13:50:06;3.90;;;2.40;;
77453;SDS011;66538;53.150;18.160;2023-10-31T13:52:34;5.50;;;3.00;;
77453;SDS011;66538;53.150;18.160;2023-10-31T13:55:01;5.60;;;2.80;;
77453;SDS011;66538;53.150;18.160;2023-10-31T13:57:28;4.20;;;2.40;;
77453;SDS011;66538;53.150;18.160;2023-10-31T13:59:54;3.60;;;2.00;;
77453;SDS011;66538;53.150;18.160;2023-10-31T14:02:21;5.00;;;2.90;;
77453;SDS011;66538;53.150;18.160;2023-10-31T14:04:48;4.70;;;2.60;;
77453;SDS011;66538;53.150;18.160;2023-10-31T14:07:17;4.00;;;2.30;;
77453;SDS011;66538;53.150;18.160;2023-10-31T14:09:51;4.50;;;2.70;;
77453;SDS011;66538;53.150;18.160;2023-10-31T14:12:19;3.90;;;2.60;;
77453;SDS011;66538;53.150;18.160;2023-10-31T14:14:45;5.60;;;3.20;;
77453;SDS011;66538;53.150;18.160;2023-10-31T14:17:17;5.00;;;3.10;;
77453;SDS011;66538;53.150;18.160;2023-10-31T14:19:44;4.30;;;2.80;;
77453;SDS011;66538;53.150;18.160;2023-10-31T14:22:13;4.50;;;2.70;;
77453;SDS011;66538;53.150;18.160;2023-10-31T14:24:40;4.40;;;2.60;;
77453;SDS011;66538;53.150;18.160;2023-10-31T14:27:07;5.90;;;3.40;;
77453;SDS011;66538;53.150;18.160;2023-10-31T14:29:34;4.60;;;3.00;;
77453;SDS011;66538;53.150;18.160;2023-10-31T14:32:07;6.00;;;3.30;;
77453;SDS011;66538;53.150;18.160;2023-10-31T14:34:35;6.00;;;3.10;;
77453;SDS011;66538;53.150;18.160;2023-10-31T14:37:02;5.90;;;2.90;;